Mississippi Star — 9HA2441 — position and weather

sailwx.info

Track history (hours):
 
Tides and Currents Weather Stations Pressure Air Temp Water Temp Dewpoint Dewpoint Depression Visibility Wind Speed Wind Dir Waves Ship Positions

Mississippi Star

Last reported at 2015-May-25 23:33 UTC. Time now 2015-May-25 23:40 UTC.
Position N 54°01' E 008°06'.

Length 128 m; draft 8.1 m.

Type: Ship. MMSI: 248621000.

Date/timePositionNaut miles runAvg speedWind from/ knotsBaromVisibWave heightAir tempDewpointWater temp
2015-May-25 23:33N 54°01' E 008°06'1111.0
2015-May-25 22:33N 53°59' E 008°25'1413.7
2015-May-25 21:33N 53°52' E 008°44'1413.5
2015-May-25 20:33N 53°53' E 009°07'1 1.5
2015-May-25 19:33N 53°54' E 009°09'1 0.0
2015-May-24 23:13N 53°55' E 009°10'0 0.0
2015-May-24 21:31N 53°55' E 009°10'0 0.0
2015-May-24 20:31N 53°55' E 009°10'0 0.0
2015-May-24 19:07N 53°55' E 009°10'0 0.0
2015-May-24 17:21N 53°55' E 009°10'1 1.8
2015-May-24 16:33N 53°54' E 009°09'2 1.5
2015-May-24 15:31N 53°53' E 009°06'0 0.0
2015-May-24 14:31N 53°53' E 009°06'0 0.0
2015-May-24 13:31N 53°53' E 009°06'0 0.1
2015-May-24 12:31N 53°53' E 009°06'0 0.0
2015-May-24 11:28N 53°53' E 009°06'3 2.9
2015-May-24 10:33N 53°52' E 009°02'9 9.1
2015-May-24 09:33N 53°51' E 008°47'8 8.3
2015-May-24 08:33N 53°57' E 008°38'1010.1
2015-May-24 07:33N 53°59' E 008°21'1110.7
2015-May-24 06:33N 53°59' E 008°03'1111.0
2015-May-24 05:33N 53°57' E 007°45'1111.5
2015-May-24 04:34N 53°54' E 007°26'1211.9
2015-May-24 03:33N 53°51' E 007°06'1212.2
2015-May-24 02:33N 53°48' E 006°46'1412.5
2015-May-24 01:28N 53°45' E 006°23'1212.7
2015-May-24 00:32N 53°42' E 006°04'1313.0
2015-May-23 23:33N 53°38' E 005°44'1313.2
2015-May-23 22:33N 53°33' E 005°23'1313.2
2015-May-23 21:34N 53°29' E 005°02'1313.0
2015-May-23 20:33N 53°25' E 004°42'1513.7
2015-May-23 19:29N 53°11' E 004°32'1213.1
2015-May-23 18:33N 53°01' E 004°22'1212.5
2015-May-23 17:33N 52°49' E 004°13'1111.5
2015-May-23 16:33N 52°42' E 003°59'1111.5
2015-May-23 15:33N 52°35' E 003°43'1410.7
2015-May-23 14:14N 52°22' E 003°38'910.8
2015-May-23 13:26N 52°13' E 003°39'4 4.9
2015-May-23 12:31N 52°09' E 003°40'0 0.0
2015-May-23 11:16N 52°09' E 003°40'0 0.0
2015-May-23 09:31N 52°09' E 003°40'0 0.1
2015-May-23 04:33N 52°08' E 003°40'1110.6
2015-May-23 03:33N 52°02' E 003°54'1212.3
2015-May-23 02:33N 51°56' E 004°12'6 5.2
2015-May-23 01:26N 51°52' E 004°19'0 0.0
2015-May-23 00:32N 51°52' E 004°19'0 0.0
2015-May-22 23:32N 51°52' E 004°19'0 0.0
2015-May-22 22:32N 51°52' E 004°19'0 0.0
2015-May-22 21:20N 51°52' E 004°19'0 0.0
2015-May-22 20:32N 51°52' E 004°19'0 0.0
2015-May-22 19:26N 51°52' E 004°19'0 0.0
2015-May-22 18:29N 51°52' E 004°19'0 0.0
2015-May-22 17:26N 51°52' E 004°19'0 0.0
2015-May-22 16:29N 51°52' E 004°19'0 0.0
2015-May-22 15:29N 51°52' E 004°19'0 0.0
2015-May-22 14:14N 51°52' E 004°19'0 0.0
2015-May-22 13:26N 51°52' E 004°19'0 0.0
2015-May-22 12:29N 51°52' E 004°19'0 0.0
2015-May-22 11:32N 51°52' E 004°19'0 0.0
2015-May-22 10:23N 51°52' E 004°19'0 0.0
2015-May-22 09:05N 51°52' E 004°19'0 0.0
2015-May-22 08:32N 51°52' E 004°19'0 0.0
2015-May-22 07:29N 51°52' E 004°19'0 0.0
2015-May-22 06:32N 51°52' E 004°19'0 0.0
2015-May-22 05:29N 51°52' E 004°19'0 0.0
2015-May-22 04:26N 51°52' E 004°19'0 0.0
2015-May-22 03:33N 51°52' E 004°19'3 3.5
2015-May-22 02:33N 51°55' E 004°15'10 9.8
2015-May-22 01:33N 51°60' E 004°01'1010.3
2015-May-22 00:33N 51°59' E 003°44'1110.6
2015-May-21 23:33N 51°55' E 003°28'1010.4
2015-May-21 22:33N 51°52' E 003°12'1110.6
2015-May-21 21:30N 51°49' E 002°55'1111.0
2015-May-21 20:33N 51°46' E 002°38'1211.7
2015-May-21 19:33N 51°37' E 002°26'1312.5
2015-May-21 18:33N 51°28' E 002°12'1212.4
2015-May-21 17:33N 51°16' E 002°06'1313.4
2015-May-21 16:33N 51°08' E 001°49'1414.1
2015-May-21 15:34N 50°59' E 001°32'1414.2
2015-May-21 14:33N 50°46' E 001°23'  
2015-May-17 22:30N 39°25' W 009°57'1110.8
2015-May-17 21:29N 39°14' W 009°57'1010.5
2015-May-17 20:32N 39°04' W 009°57'1010.5
2015-May-17 19:33N 38°54' W 009°57'1010.2
2015-May-17 18:33N 38°44' W 009°56'1010.1
2015-May-17 17:33N 38°34' W 009°54'1110.4
2015-May-17 16:33N 38°23' W 009°51'1110.6
2015-May-17 15:33N 38°13' W 009°48'1110.8
2015-May-17 14:33N 38°03' W 009°45'1010.6
2015-May-17 13:34N 37°52' W 009°42'1010.3
2015-May-17 12:33N 37°42' W 009°39'1110.5
2015-May-17 11:33N 37°32' W 009°36'1110.6
2015-May-17 10:33N 37°22' W 009°33'1010.4
2015-May-17 09:33N 37°12' W 009°30'1110.7
2015-May-17 08:33N 37°01' W 009°27'1110.8
2015-May-17 07:33N 36°51' W 009°24'1110.7
2015-May-17 06:33N 36°43' W 009°15'1110.8
2015-May-17 05:33N 36°38' W 009°02'1111.2
2015-May-17 04:33N 36°35' W 008°49'1211.5
2015-May-17 03:33N 36°31' W 008°36'3711.8
2015-May-17 00:27N 36°20' W 007°52'12010.9
2015-May-16 13:30N 35°60' W 005°26'5 5.8
2015-May-16 12:34N 35°58' W 005°19'4 4.4
2015-May-16 11:34N 35°54' W 005°19'0 0.0
2015-May-16 10:33N 35°54' W 005°19'0 0.0
2015-May-16 09:34N 35°54' W 005°19'0 0.0
2015-May-16 08:33N 35°54' W 005°19'0 0.3
2015-May-16 07:33N 35°54' W 005°19'2 2.0
2015-May-16 06:33N 35°55' W 005°20'0 0.4
2015-May-16 05:33N 35°55' W 005°20'0 0.1
2015-May-16 04:33N 35°55' W 005°20'0 0.1
2015-May-16 03:33N 35°55' W 005°20'0 0.1
2015-May-16 02:33N 35°55' W 005°20'0 0.0
2015-May-16 01:33N 35°55' W 005°20'0 0.0
2015-May-16 00:33N 35°55' W 005°20'  
Track history (hours):
 
Tides and Currents Weather Stations Pressure Air Temp Water Temp Dewpoint Dewpoint Depression Visibility Wind Speed Wind Dir Waves Ship Positions

Mississippi Star

Last reported at 2015-May-25 23:33 UTC. Time now 2015-May-25 23:40 UTC.
Position N 54°01' E 008°06'.

Length 128 m; draft 8.1 m.

Type: Ship. MMSI: 248621000.

Date/timePositionNaut miles runAvg speedWind from/ knotsBaromVisibWave heightAir tempDewpointWater temp
2015-May-25 23:33N 54°01' E 008°06'1111.0
2015-May-25 22:33N 53°59' E 008°25'1413.7
2015-May-25 21:33N 53°52' E 008°44'1413.5
2015-May-25 20:33N 53°53' E 009°07'1 1.5
2015-May-25 19:33N 53°54' E 009°09'1 0.0
2015-May-24 23:13N 53°55' E 009°10'0 0.0
2015-May-24 21:31N 53°55' E 009°10'0 0.0
2015-May-24 20:31N 53°55' E 009°10'0 0.0
2015-May-24 19:07N 53°55' E 009°10'0 0.0
2015-May-24 17:21N 53°55' E 009°10'1 1.8
2015-May-24 16:33N 53°54' E 009°09'2 1.5
2015-May-24 15:31N 53°53' E 009°06'0 0.0
2015-May-24 14:31N 53°53' E 009°06'0 0.0
2015-May-24 13:31N 53°53' E 009°06'0 0.1
2015-May-24 12:31N 53°53' E 009°06'0 0.0
2015-May-24 11:28N 53°53' E 009°06'3 2.9
2015-May-24 10:33N 53°52' E 009°02'9 9.1
2015-May-24 09:33N 53°51' E 008°47'8 8.3
2015-May-24 08:33N 53°57' E 008°38'1010.1
2015-May-24 07:33N 53°59' E 008°21'1110.7
2015-May-24 06:33N 53°59' E 008°03'1111.0
2015-May-24 05:33N 53°57' E 007°45'1111.5
2015-May-24 04:34N 53°54' E 007°26'1211.9
2015-May-24 03:33N 53°51' E 007°06'1212.2
2015-May-24 02:33N 53°48' E 006°46'1412.5
2015-May-24 01:28N 53°45' E 006°23'1212.7
2015-May-24 00:32N 53°42' E 006°04'1313.0
2015-May-23 23:33N 53°38' E 005°44'1313.2
2015-May-23 22:33N 53°33' E 005°23'1313.2
2015-May-23 21:34N 53°29' E 005°02'1313.0
2015-May-23 20:33N 53°25' E 004°42'1513.7
2015-May-23 19:29N 53°11' E 004°32'1213.1
2015-May-23 18:33N 53°01' E 004°22'1212.5
2015-May-23 17:33N 52°49' E 004°13'1111.5
2015-May-23 16:33N 52°42' E 003°59'1111.5
2015-May-23 15:33N 52°35' E 003°43'1410.7
2015-May-23 14:14N 52°22' E 003°38'910.8
2015-May-23 13:26N 52°13' E 003°39'4 4.9
2015-May-23 12:31N 52°09' E 003°40'0 0.0
2015-May-23 11:16N 52°09' E 003°40'0 0.0
2015-May-23 09:31N 52°09' E 003°40'0 0.1
2015-May-23 04:33N 52°08' E 003°40'1110.6
2015-May-23 03:33N 52°02' E 003°54'1212.3
2015-May-23 02:33N 51°56' E 004°12'6 5.2
2015-May-23 01:26N 51°52' E 004°19'0 0.0
2015-May-23 00:32N 51°52' E 004°19'0 0.0
2015-May-22 23:32N 51°52' E 004°19'0 0.0
2015-May-22 22:32N 51°52' E 004°19'0 0.0
2015-May-22 21:20N 51°52' E 004°19'0 0.0
2015-May-22 20:32N 51°52' E 004°19'0 0.0
2015-May-22 19:26N 51°52' E 004°19'0 0.0
2015-May-22 18:29N 51°52' E 004°19'0 0.0
2015-May-22 17:26N 51°52' E 004°19'0 0.0
2015-May-22 16:29N 51°52' E 004°19'0 0.0
2015-May-22 15:29N 51°52' E 004°19'0 0.0
2015-May-22 14:14N 51°52' E 004°19'0 0.0
2015-May-22 13:26N 51°52' E 004°19'0 0.0
2015-May-22 12:29N 51°52' E 004°19'0 0.0
2015-May-22 11:32N 51°52' E 004°19'0 0.0
2015-May-22 10:23N 51°52' E 004°19'0 0.0
2015-May-22 09:05N 51°52' E 004°19'0 0.0
2015-May-22 08:32N 51°52' E 004°19'0 0.0
2015-May-22 07:29N 51°52' E 004°19'0 0.0
2015-May-22 06:32N 51°52' E 004°19'0 0.0
2015-May-22 05:29N 51°52' E 004°19'0 0.0
2015-May-22 04:26N 51°52' E 004°19'0 0.0
2015-May-22 03:33N 51°52' E 004°19'3 3.5
2015-May-22 02:33N 51°55' E 004°15'10 9.8
2015-May-22 01:33N 51°60' E 004°01'1010.3
2015-May-22 00:33N 51°59' E 003°44'1110.6
2015-May-21 23:33N 51°55' E 003°28'1010.4
2015-May-21 22:33N 51°52' E 003°12'1110.6
2015-May-21 21:30N 51°49' E 002°55'1111.0
2015-May-21 20:33N 51°46' E 002°38'1211.7
2015-May-21 19:33N 51°37' E 002°26'1312.5
2015-May-21 18:33N 51°28' E 002°12'1212.4
2015-May-21 17:33N 51°16' E 002°06'1313.4
2015-May-21 16:33N 51°08' E 001°49'1414.1
2015-May-21 15:34N 50°59' E 001°32'1414.2
2015-May-21 14:33N 50°46' E 001°23'  
2015-May-17 22:30N 39°25' W 009°57'1110.8
2015-May-17 21:29N 39°14' W 009°57'1010.5
2015-May-17 20:32N 39°04' W 009°57'1010.5
2015-May-17 19:33N 38°54' W 009°57'1010.2
2015-May-17 18:33N 38°44' W 009°56'1010.1
2015-May-17 17:33N 38°34' W 009°54'1110.4
2015-May-17 16:33N 38°23' W 009°51'1110.6
2015-May-17 15:33N 38°13' W 009°48'1110.8
2015-May-17 14:33N 38°03' W 009°45'1010.6
2015-May-17 13:34N 37°52' W 009°42'1010.3
2015-May-17 12:33N 37°42' W 009°39'1110.5
2015-May-17 11:33N 37°32' W 009°36'1110.6
2015-May-17 10:33N 37°22' W 009°33'1010.4
2015-May-17 09:33N 37°12' W 009°30'1110.7
2015-May-17 08:33N 37°01' W 009°27'1110.8
2015-May-17 07:33N 36°51' W 009°24'1110.7
2015-May-17 06:33N 36°43' W 009°15'1110.8
2015-May-17 05:33N 36°38' W 009°02'1111.2
2015-May-17 04:33N 36°35' W 008°49'1211.5
2015-May-17 03:33N 36°31' W 008°36'3711.8
2015-May-17 00:27N 36°20' W 007°52'12010.9
2015-May-16 13:30N 35°60' W 005°26'5 5.8
2015-May-16 12:34N 35°58' W 005°19'4 4.4
2015-May-16 11:34N 35°54' W 005°19'0 0.0
2015-May-16 10:33N 35°54' W 005°19'0 0.0
2015-May-16 09:34N 35°54' W 005°19'0 0.0
2015-May-16 08:33N 35°54' W 005°19'0 0.3
2015-May-16 07:33N 35°54' W 005°19'2 2.0
2015-May-16 06:33N 35°55' W 005°20'0 0.4
2015-May-16 05:33N 35°55' W 005°20'0 0.1
2015-May-16 04:33N 35°55' W 005°20'0 0.1
2015-May-16 03:33N 35°55' W 005°20'0 0.1
2015-May-16 02:33N 35°55' W 005°20'0 0.0
2015-May-16 01:33N 35°55' W 005°20'0 0.0
2015-May-16 00:33N 35°55' W 005°20'  

Dump ship's entire track history